Time;durP1;ratioP1;P1;durP2;ratioP2;P2;SDS_P1;SDS_P2;PMS_P1;PMS_P2;Temp;Humidity;BMP_temperature;BMP_pressure;BME280_temperature;BME280_humidity;BME280_pressure;Samples;Min_cycle;Max_cycle;Signal;HPM_P1;HPM_P2
2022/01/30 00:00:50;;;;;;;37.90;5.85;;;;;;;;;;5079756;28;20048;-61
2022/01/30 00:03:16;;;;;;;36.83;6.10;;;;;;;;;;5076976;28;20033;-61
2022/01/30 00:05:42;;;;;;;34.30;6.63;;;;;;;;;;5073336;28;20396;-62
2022/01/30 00:08:08;;;;;;;35.72;5.72;;;;;;;;;;5085384;28;20055;-61
2022/01/30 00:10:39;;;;;;;32.08;5.80;;;;;;;;;;5084302;28;20043;-61
2022/01/30 00:13:08;;;;;;;39.22;5.72;;;;;;;;;;5088063;28;20213;-62
2022/01/30 00:15:39;;;;;;;34.58;6.60;;;;;;;;;;5084420;28;20051;-61
2022/01/30 00:18:14;;;;;;;43.65;8.57;;;;;;;;;;5082517;28;20105;-62
2022/01/30 00:20:44;;;;;;;37.58;6.32;;;;;;;;;;5081429;28;20040;-62
2022/01/30 00:23:16;;;;;;;30.42;5.15;;;;;;;;;;5081437;28;20201;-61
2022/01/30 00:25:50;;;;;;;17.88;2.78;;;;;;;;;;5076681;28;20094;-61
2022/01/30 00:28:18;;;;;;;25.70;4.10;;;;;;;;;;5079495;28;20075;-62
2022/01/30 00:30:45;;;;;;;25.50;3.80;;;;;;;;;;5079113;28;20143;-61
2022/01/30 00:33:11;;;;;;;34.33;5.50;;;;;;;;;;5096853;28;20071;-61
2022/01/30 00:35:38;;;;;;;27.67;5.47;;;;;;;;;;5087245;28;20039;-62
2022/01/30 00:38:05;;;;;;;28.92;4.50;;;;;;;;;;5084347;28;20050;-62
2022/01/30 00:40:31;;;;;;;28.27;4.57;;;;;;;;;;5082829;28;20119;-62
2022/01/30 00:42:57;;;;;;;34.60;6.50;;;;;;;;;;5075272;28;20044;-62
2022/01/30 00:45:23;;;;;;;36.03;6.65;;;;;;;;;;5082208;28;20052;-61
2022/01/30 00:47:50;;;;;;;34.45;6.18;;;;;;;;;;5078449;28;20131;-61
2022/01/30 00:50:17;;;;;;;34.97;6.82;;;;;;;;;;5083624;28;20070;-62
2022/01/30 00:52:43;;;;;;;38.25;6.20;;;;;;;;;;5088627;28;20046;-62
2022/01/30 00:55:09;;;;;;;45.17;8.98;;;;;;;;;;5086488;28;20058;-62
2022/01/30 00:57:35;;;;;;;43.63;6.28;;;;;;;;;;5090131;28;20047;-62
2022/01/30 01:00:02;;;;;;;41.22;6.28;;;;;;;;;;5086421;28;20111;-61
2022/01/30 01:02:28;;;;;;;40.10;7.00;;;;;;;;;;5103695;28;20166;-62
2022/01/30 01:04:54;;;;;;;49.25;8.48;;;;;;;;;;5078364;28;20078;-61
2022/01/30 01:07:21;;;;;;;44.88;7.50;;;;;;;;;;5083560;28;20047;-61
2022/01/30 01:10:03;;;;;;;41.95;6.85;;;;;;;;;;5084960;28;20043;-62
2022/01/30 01:12:54;;;;;;;36.28;5.75;;;;;;;;;;5091926;28;20044;-61
2022/01/30 01:23:21;;;;;;;33.13;5.82;;;;;;;;;;5085350;28;20048;-62
2022/01/30 01:23:47;;;;;;;40.63;6.78;;;;;;;;;;5084534;28;20071;-62
2022/01/30 01:26:14;;;;;;;40.42;6.88;;;;;;;;;;5087413;28;20506;-62
2022/01/30 01:28:40;;;;;;;33.80;5.82;;;;;;;;;;5085681;28;20047;-62
2022/01/30 01:31:06;;;;;;;39.33;6.30;;;;;;;;;;5078936;28;20043;-61
2022/01/30 01:33:46;;;;;;;47.38;7.63;;;;;;;;;;5086164;28;20043;-62
2022/01/30 01:36:12;;;;;;;35.92;5.97;;;;;;;;;;5072786;28;20463;-61
2022/01/30 01:38:39;;;;;;;40.60;6.65;;;;;;;;;;5077738;28;20037;-62
2022/01/30 01:41:05;;;;;;;46.42;7.50;;;;;;;;;;5068268;28;20040;-61
2022/01/30 01:43:32;;;;;;;40.47;7.18;;;;;;;;;;5090896;28;20352;-62
2022/01/30 01:46:00;;;;;;;44.92;6.82;;;;;;;;;;5095787;28;20133;-64
2022/01/30 01:48:26;;;;;;;31.40;5.93;;;;;;;;;;5090102;28;20088;-62
2022/01/30 01:51:03;;;;;;;47.83;7.93;;;;;;;;;;5081448;28;20086;-62
2022/01/30 01:53:29;;;;;;;39.38;6.55;;;;;;;;;;5079567;28;20043;-62
2022/01/30 01:55:55;;;;;;;42.50;6.68;;;;;;;;;;5080329;28;20032;-61
2022/01/30 01:58:24;;;;;;;43.10;6.88;;;;;;;;;;5081061;28;20029;-61
2022/01/30 02:00:50;;;;;;;46.28;6.57;;;;;;;;;;5072732;28;20036;-61
2022/01/30 02:03:18;;;;;;;42.08;6.15;;;;;;;;;;5077729;28;20488;-62
2022/01/30 02:05:50;;;;;;;42.42;5.95;;;;;;;;;;5079946;28;20045;-62
2022/01/30 02:08:30;;;;;;;43.85;8.55;;;;;;;;;;5076518;28;20052;-62
2022/01/30 02:11:03;;;;;;;39.65;7.03;;;;;;;;;;5075506;28;20133;-62
2022/01/30 02:14:00;;;;;;;41.00;7.55;;;;;;;;;;5093287;28;20178;-62
2022/01/30 02:27:02;;;;;;;32.30;6.85;;;;;;;;;;5075853;28;20072;-61
2022/01/30 02:29:29;;;;;;;29.67;6.07;;;;;;;;;;5081482;28;20075;-62
2022/01/30 02:31:57;;;;;;;44.03;6.72;;;;;;;;;;5077769;28;20048;-61
2022/01/30 02:34:26;;;;;;;37.90;9.75;;;;;;;;;;5086142;28;20059;-62
2022/01/30 02:36:52;;;;;;;33.70;5.35;;;;;;;;;;5085006;28;20123;-62
2022/01/30 02:39:19;;;;;;;26.67;5.15;;;;;;;;;;5082174;28;20512;-62
2022/01/30 02:41:45;;;;;;;35.17;5.78;;;;;;;;;;5075287;28;20076;-62
2022/01/30 02:44:18;;;;;;;28.58;5.43;;;;;;;;;;5082871;28;20052;-62
2022/01/30 02:46:47;;;;;;;33.15;5.82;;;;;;;;;;5082339;28;20036;-62
2022/01/30 02:51:51;;;;;;;35.15;8.40;;;;;;;;;;5096570;28;20086;-62
2022/01/30 02:54:18;;;;;;;40.35;7.55;;;;;;;;;;5088820;28;20047;-62
2022/01/30 02:56:44;;;;;;;38.63;6.97;;;;;;;;;;5101562;28;20055;-61
2022/01/30 02:59:11;;;;;;;39.13;7.72;;;;;;;;;;5081795;28;20503;-62
2022/01/30 03:01:37;;;;;;;42.50;7.25;;;;;;;;;;5083643;28;20059;-62
2022/01/30 03:04:03;;;;;;;39.70;7.93;;;;;;;;;;5097982;28;20487;-62
2022/01/30 03:06:29;;;;;;;49.33;8.60;;;;;;;;;;5082143;28;20064;-62
2022/01/30 03:08:56;;;;;;;46.53;8.45;;;;;;;;;;5089637;28;20129;-61
2022/01/30 03:11:22;;;;;;;55.95;7.88;;;;;;;;;;5089442;28;20048;-62
2022/01/30 03:13:48;;;;;;;47.05;7.93;;;;;;;;;;5088696;28;20055;-62
2022/01/30 03:16:15;;;;;;;46.42;6.82;;;;;;;;;;5084586;28;20123;-62
2022/01/30 03:18:41;;;;;;;48.00;11.15;;;;;;;;;;5077297;28;20151;-62
2022/01/30 03:21:07;;;;;;;46.50;7.00;;;;;;;;;;5077961;28;20036;-62
2022/01/30 03:23:37;;;;;;;43.60;7.68;;;;;;;;;;5073283;28;20451;-61
2022/01/30 03:26:04;;;;;;;54.03;7.90;;;;;;;;;;5076545;28;20123;-62
2022/01/30 03:28:31;;;;;;;55.45;9.50;;;;;;;;;;5089906;28;20048;-61
2022/01/30 03:31:01;;;;;;;46.72;7.65;;;;;;;;;;5080002;28;20112;-62
2022/01/30 03:33:28;;;;;;;53.75;9.40;;;;;;;;;;5090012;28;20056;-61
2022/01/30 03:35:54;;;;;;;47.53;9.18;;;;;;;;;;5098193;28;20040;-62
2022/01/30 03:38:20;;;;;;;47.65;9.18;;;;;;;;;;5075670;28;20480;-62
2022/01/30 03:40:47;;;;;;;50.20;8.77;;;;;;;;;;5081209;28;20076;-62
2022/01/30 03:43:13;;;;;;;51.80;8.45;;;;;;;;;;5080701;28;20074;-62
2022/01/30 03:45:40;;;;;;;47.13;8.75;;;;;;;;;;5080276;28;20110;-62
2022/01/30 03:48:06;;;;;;;46.83;7.45;;;;;;;;;;5071461;28;20078;-62
2022/01/30 03:50:32;;;;;;;63.55;9.13;;;;;;;;;;5081885;28;20380;-61
2022/01/30 03:52:59;;;;;;;40.10;8.48;;;;;;;;;;5081649;28;20032;-62
2022/01/30 03:55:25;;;;;;;54.70;7.93;;;;;;;;;;5088329;28;20051;-62
2022/01/30 03:57:52;;;;;;;42.08;7.13;;;;;;;;;;5086761;28;20047;-62
2022/01/30 04:00:18;;;;;;;54.47;8.50;;;;;;;;;;5086629;28;20052;-61
2022/01/30 04:02:44;;;;;;;45.15;7.03;;;;;;;;;;5101681;28;20048;-62
2022/01/30 04:05:10;;;;;;;50.35;8.10;;;;;;;;;;5088876;28;20048;-62
2022/01/30 04:07:37;;;;;;;48.20;7.90;;;;;;;;;;5081288;28;20051;-62
2022/01/30 04:10:04;;;;;;;39.88;7.07;;;;;;;;;;5084854;28;20059;-62
2022/01/30 04:12:30;;;;;;;43.53;7.85;;;;;;;;;;5096153;28;20823;-62
2022/01/30 04:14:57;;;;;;;45.70;9.65;;;;;;;;;;5082376;28;20095;-62
2022/01/30 04:17:23;;;;;;;48.65;8.05;;;;;;;;;;5094265;28;20036;-62
2022/01/30 04:19:49;;;;;;;59.80;8.05;;;;;;;;;;5088504;28;20503;-62
2022/01/30 04:22:16;;;;;;;58.05;8.55;;;;;;;;;;5082078;28;20042;-62
2022/01/30 04:24:42;;;;;;;40.38;8.23;;;;;;;;;;5087655;28;20386;-62
2022/01/30 04:27:08;;;;;;;58.63;9.15;;;;;;;;;;5084683;28;20177;-62
2022/01/30 04:29:35;;;;;;;47.80;8.27;;;;;;;;;;5101188;28;20047;-61
2022/01/30 04:32:02;;;;;;;49.67;8.10;;;;;;;;;;5077904;28;20041;-61
2022/01/30 04:34:29;;;;;;;52.60;9.57;;;;;;;;;;5069588;28;20117;-62
2022/01/30 04:37:02;;;;;;;46.53;9.90;;;;;;;;;;5076278;28;20052;-62
2022/01/30 04:39:50;;;;;;;54.63;8.93;;;;;;;;;;5083581;28;20055;-61
2022/01/30 04:51:57;;;;;;;44.75;7.85;;;;;;;;;;5092552;28;20411;-62
2022/01/30 04:53:26;;;;;;;42.80;6.95;;;;;;;;;;5081037;28;20478;-62
2022/01/30 04:56:47;;;;;;;50.17;8.57;;;;;;;;;;5081113;28;20071;-61
2022/01/30 04:59:15;;;;;;;52.85;9.45;;;;;;;;;;5077932;28;20403;-62
2022/01/30 05:09:26;;;;;;;50.05;8.88;;;;;;;;;;5083867;28;20109;-61
2022/01/30 05:11:53;;;;;;;49.72;9.23;;;;;;;;;;5078141;28;20101;-62
2022/01/30 05:14:22;;;;;;;61.38;9.73;;;;;;;;;;5085552;28;20044;-62
2022/01/30 05:16:48;;;;;;;54.65;9.43;;;;;;;;;;5083730;28;20120;-62
2022/01/30 05:19:15;;;;;;;50.13;8.55;;;;;;;;;;5083556;28;20040;-61
2022/01/30 05:21:42;;;;;;;55.88;8.80;;;;;;;;;;5081236;28;20036;-62
2022/01/30 05:24:08;;;;;;;42.97;7.47;;;;;;;;;;5081572;28;20148;-62
2022/01/30 05:26:37;;;;;;;55.97;9.35;;;;;;;;;;5079776;28;20055;-61
2022/01/30 05:29:03;;;;;;;49.60;8.88;;;;;;;;;;5080815;28;20053;-61
2022/01/30 05:31:29;;;;;;;39.80;8.35;;;;;;;;;;5083764;28;20418;-61
2022/01/30 05:33:56;;;;;;;53.03;8.18;;;;;;;;;;5073037;28;20102;-62
2022/01/30 05:36:22;;;;;;;51.90;8.63;;;;;;;;;;5082319;28;20562;-62
2022/01/30 05:38:49;;;;;;;53.53;8.25;;;;;;;;;;5078458;28;20037;-61
2022/01/30 05:41:15;;;;;;;54.72;9.55;;;;;;;;;;5090820;28;20370;-61
2022/01/30 05:43:42;;;;;;;56.90;11.63;;;;;;;;;;5083481;28;20417;-62
2022/01/30 05:46:13;;;;;;;53.53;8.55;;;;;;;;;;5082075;28;20044;-61
2022/01/30 05:48:40;;;;;;;46.83;8.38;;;;;;;;;;5083936;28;20037;-62
2022/01/30 05:51:06;;;;;;;41.65;9.85;;;;;;;;;;5074258;28;20036;-62
2022/01/30 05:53:32;;;;;;;51.47;11.05;;;;;;;;;;5082382;28;20356;-62
2022/01/30 05:55:58;;;;;;;43.85;9.40;;;;;;;;;;5062276;28;20041;-62
2022/01/30 05:58:24;;;;;;;46.72;9.18;;;;;;;;;;5079876;28;20344;-62
2022/01/30 06:00:50;;;;;;;43.60;8.80;;;;;;;;;;5078487;28;20069;-61
2022/01/30 06:03:17;;;;;;;46.63;9.20;;;;;;;;;;5086901;28;20418;-61
2022/01/30 06:05:46;;;;;;;54.70;8.48;;;;;;;;;;5095842;28;20363;-61
2022/01/30 06:08:16;;;;;;;50.20;8.80;;;;;;;;;;5090251;28;20491;-62
2022/01/30 06:10:42;;;;;;;54.92;11.63;;;;;;;;;;5069732;28;20318;-61
2022/01/30 06:13:09;;;;;;;58.85;10.23;;;;;;;;;;5080924;28;20102;-61
2022/01/30 06:15:35;;;;;;;43.42;8.05;;;;;;;;;;5072523;28;20068;-61
2022/01/30 06:18:01;;;;;;;58.97;8.32;;;;;;;;;;5080941;28;20470;-62
2022/01/30 06:20:27;;;;;;;59.35;10.45;;;;;;;;;;5079722;28;20122;-61
2022/01/30 06:22:53;;;;;;;46.00;8.25;;;;;;;;;;5062129;28;20052;-61
2022/01/30 06:25:19;;;;;;;52.78;9.32;;;;;;;;;;5052273;28;20460;-62
2022/01/30 06:27:46;;;;;;;54.20;8.48;;;;;;;;;;5068718;28;20098;-62
2022/01/30 06:30:13;;;;;;;47.00;9.07;;;;;;;;;;5084248;28;20052;-62
2022/01/30 06:32:39;;;;;;;58.95;11.40;;;;;;;;;;5085896;28;20044;-62
2022/01/30 06:35:05;;;;;;;52.80;9.43;;;;;;;;;;5090875;28;20044;-62
2022/01/30 06:37:31;;;;;;;52.85;8.52;;;;;;;;;;5081711;28;20075;-62
2022/01/30 06:39:57;;;;;;;50.25;8.90;;;;;;;;;;5080108;28;20040;-62
2022/01/30 06:42:24;;;;;;;48.33;9.00;;;;;;;;;;5079300;28;20041;-62
2022/01/30 06:44:50;;;;;;;51.60;10.07;;;;;;;;;;5089306;28;20131;-62
2022/01/30 06:47:17;;;;;;;55.55;10.90;;;;;;;;;;5083011;28;20518;-62
2022/01/30 06:49:43;;;;;;;60.95;10.32;;;;;;;;;;5080038;28;20048;-62
2022/01/30 06:52:11;;;;;;;52.58;9.27;;;;;;;;;;5088971;28;20042;-62
2022/01/30 06:54:37;;;;;;;58.85;11.00;;;;;;;;;;5093092;28;20061;-61
2022/01/30 06:57:04;;;;;;;65.82;9.23;;;;;;;;;;5101817;28;20096;-61
2022/01/30 06:59:30;;;;;;;55.05;9.50;;;;;;;;;;5101079;28;20088;-61
2022/01/30 07:01:56;;;;;;;41.72;8.43;;;;;;;;;;5097998;28;20036;-61
2022/01/30 07:04:23;;;;;;;46.17;8.13;;;;;;;;;;5095231;28;20126;-61
2022/01/30 07:06:49;;;;;;;50.28;9.55;;;;;;;;;;5066395;28;20551;-61
2022/01/30 07:09:15;;;;;;;50.15;8.20;;;;;;;;;;5064071;28;20174;-61
2022/01/30 07:11:41;;;;;;;50.20;8.48;;;;;;;;;;5081973;28;20139;-62
2022/01/30 07:14:07;;;;;;;51.85;9.77;;;;;;;;;;5060951;28;20169;-62
2022/01/30 07:16:33;;;;;;;54.58;8.60;;;;;;;;;;5081675;28;20040;-62
2022/01/30 07:18:59;;;;;;;46.35;9.88;;;;;;;;;;5089768;28;20127;-61
2022/01/30 07:21:26;;;;;;;51.42;9.65;;;;;;;;;;5098059;28;20240;-62
2022/01/30 07:23:52;;;;;;;81.90;11.82;;;;;;;;;;5073880;28;20044;-62
2022/01/30 07:26:18;;;;;;;48.17;8.73;;;;;;;;;;5094741;28;20458;-62
2022/01/30 07:28:44;;;;;;;56.78;9.93;;;;;;;;;;5090439;28;20094;-61
2022/01/30 07:31:10;;;;;;;56.13;10.05;;;;;;;;;;5087571;28;20119;-62
2022/01/30 07:33:40;;;;;;;49.92;9.43;;;;;;;;;;5072759;28;20051;-62
2022/01/30 07:36:07;;;;;;;56.90;11.90;;;;;;;;;;5086294;28;20094;-62
2022/01/30 07:38:34;;;;;;;62.30;10.05;;;;;;;;;;5084901;28;20041;-62
2022/01/30 07:41:00;;;;;;;52.83;8.98;;;;;;;;;;5082851;28;20450;-62
2022/01/30 07:43:26;;;;;;;47.58;9.18;;;;;;;;;;5080992;28;20097;-62
2022/01/30 07:45:53;;;;;;;53.63;8.90;;;;;;;;;;5071348;28;20051;-62
2022/01/30 07:48:19;;;;;;;42.25;8.07;;;;;;;;;;5070121;28;20119;-62
2022/01/30 07:50:45;;;;;;;66.78;10.13;;;;;;;;;;5070102;28;20044;-62
2022/01/30 07:53:11;;;;;;;52.83;8.38;;;;;;;;;;5067981;28;20075;-62
2022/01/30 07:55:37;;;;;;;54.95;8.50;;;;;;;;;;5071737;28;20059;-61
2022/01/30 07:58:04;;;;;;;42.35;8.85;;;;;;;;;;5070517;28;20045;-62
2022/01/30 08:00:30;;;;;;;73.13;10.88;;;;;;;;;;5069282;28;20085;-62
2022/01/30 08:02:56;;;;;;;42.90;7.85;;;;;;;;;;5066766;28;20044;-62
2022/01/30 08:05:22;;;;;;;67.47;10.07;;;;;;;;;;5064906;28;20100;-62
2022/01/30 08:07:48;;;;;;;42.08;6.82;;;;;;;;;;5063795;28;20067;-62
2022/01/30 08:10:14;;;;;;;48.00;9.10;;;;;;;;;;5061698;28;20045;-63
2022/01/30 08:12:41;;;;;;;42.95;7.88;;;;;;;;;;5071119;28;20033;-63
2022/01/30 08:15:07;;;;;;;44.05;7.32;;;;;;;;;;5047446;28;20404;-62
2022/01/30 08:17:36;;;;;;;36.45;7.78;;;;;;;;;;5065232;28;20554;-61
2022/01/30 08:20:02;;;;;;;40.75;6.97;;;;;;;;;;5060422;28;20504;-62
2022/01/30 08:22:30;;;;;;;44.55;7.63;;;;;;;;;;5066712;28;20052;-62
2022/01/30 08:24:56;;;;;;;42.28;7.35;;;;;;;;;;5062468;28;20145;-62
2022/01/30 08:27:22;;;;;;;53.00;7.47;;;;;;;;;;5040833;28;20060;-62
2022/01/30 08:29:48;;;;;;;43.40;7.88;;;;;;;;;;5056298;28;20048;-62
2022/01/30 08:32:15;;;;;;;39.15;7.97;;;;;;;;;;5056792;28;20037;-62
2022/01/30 08:34:41;;;;;;;37.60;7.63;;;;;;;;;;5072194;28;20043;-62
2022/01/30 08:37:08;;;;;;;40.58;7.63;;;;;;;;;;5076588;28;20055;-62
2022/01/30 08:39:35;;;;;;;57.17;9.60;;;;;;;;;;5064135;28;20049;-62
2022/01/30 08:42:01;;;;;;;50.28;9.10;;;;;;;;;;5066655;28;20067;-62
2022/01/30 08:44:27;;;;;;;53.35;8.18;;;;;;;;;;5052297;28;20158;-62
2022/01/30 08:46:53;;;;;;;46.13;6.93;;;;;;;;;;5062679;28;20060;-62
2022/01/30 08:49:19;;;;;;;37.85;7.03;;;;;;;;;;5067862;28;20052;-62
2022/01/30 08:51:45;;;;;;;48.33;7.03;;;;;;;;;;5066410;28;20090;-62
2022/01/30 08:54:12;;;;;;;53.33;8.70;;;;;;;;;;5066639;28;20436;-62
2022/01/30 08:56:38;;;;;;;53.90;8.93;;;;;;;;;;5065369;28;20064;-62
2022/01/30 08:59:04;;;;;;;41.97;7.03;;;;;;;;;;5061727;28;20067;-62
2022/01/30 09:01:32;;;;;;;42.70;8.40;;;;;;;;;;5057712;28;20455;-62
2022/01/30 09:04:00;;;;;;;51.03;9.70;;;;;;;;;;5056104;28;20122;-62
2022/01/30 09:06:26;;;;;;;55.40;10.60;;;;;;;;;;5054514;28;20048;-62
2022/01/30 09:08:52;;;;;;;53.35;9.60;;;;;;;;;;5056951;28;20167;-63
2022/01/30 09:11:18;;;;;;;64.00;10.43;;;;;;;;;;5054854;28;20057;-62
2022/01/30 09:13:44;;;;;;;52.30;9.75;;;;;;;;;;5039087;28;20036;-62
2022/01/30 09:16:10;;;;;;;50.10;8.52;;;;;;;;;;5056013;28;20105;-62
2022/01/30 09:18:38;;;;;;;54.88;9.20;;;;;;;;;;5053385;28;20468;-62
2022/01/30 09:21:04;;;;;;;61.90;8.95;;;;;;;;;;5067457;28;20043;-62
2022/01/30 09:23:31;;;;;;;57.65;10.40;;;;;;;;;;5067712;28;20396;-62
2022/01/30 09:25:57;;;;;;;48.97;8.65;;;;;;;;;;5066062;28;20036;-62
2022/01/30 09:28:23;;;;;;;58.92;11.52;;;;;;;;;;5064950;28;20482;-62
2022/01/30 09:30:49;;;;;;;53.60;9.35;;;;;;;;;;5052924;28;20523;-62
2022/01/30 09:33:15;;;;;;;52.95;10.30;;;;;;;;;;5063997;28;20051;-62
2022/01/30 09:35:42;;;;;;;65.55;10.80;;;;;;;;;;5055384;28;20411;-62
2022/01/30 09:38:08;;;;;;;61.70;9.38;;;;;;;;;;5035784;28;20507;-62
2022/01/30 09:40:34;;;;;;;58.85;9.13;;;;;;;;;;5055347;28;20377;-62
2022/01/30 09:43:02;;;;;;;57.97;10.30;;;;;;;;;;5064876;28;20162;-62
2022/01/30 09:45:29;;;;;;;52.85;9.60;;;;;;;;;;5073245;28;20425;-62
2022/01/30 09:47:56;;;;;;;52.85;9.88;;;;;;;;;;5085325;28;20044;-62
2022/01/30 09:50:23;;;;;;;55.92;9.90;;;;;;;;;;5088903;28;20045;-62
2022/01/30 09:52:49;;;;;;;57.05;9.75;;;;;;;;;;5085587;28;20040;-62
2022/01/30 09:55:15;;;;;;;42.00;7.03;;;;;;;;;;5079044;28;20083;-62
2022/01/30 09:57:46;;;;;;;49.00;8.52;;;;;;;;;;5080586;28;20033;-62
2022/01/30 10:00:13;;;;;;;52.33;9.90;;;;;;;;;;5079156;28;20415;-62
2022/01/30 10:02:41;;;;;;;49.67;8.00;;;;;;;;;;5074783;28;20090;-62
2022/01/30 10:05:07;;;;;;;52.15;8.07;;;;;;;;;;5080725;28;20088;-62
2022/01/30 10:07:49;;;;;;;62.78;9.35;;;;;;;;;;5080635;28;20413;-62
2022/01/30 10:10:18;;;;;;;41.90;9.27;;;;;;;;;;5097772;28;20399;-62
2022/01/30 10:12:59;;;;;;;39.10;7.95;;;;;;;;;;5086345;28;20040;-62
2022/01/30 10:15:25;;;;;;;44.72;8.68;;;;;;;;;;5081303;28;20032;-62
2022/01/30 10:17:52;;;;;;;49.00;7.47;;;;;;;;;;5082372;28;20036;-62
2022/01/30 10:20:19;;;;;;;53.97;9.15;;;;;;;;;;5081339;28;20037;-62
2022/01/30 10:22:49;;;;;;;50.80;9.77;;;;;;;;;;5077773;28;20500;-62
2022/01/30 10:25:20;;;;;;;48.42;8.10;;;;;;;;;;5077060;28;20510;-62
2022/01/30 10:27:46;;;;;;;50.25;9.05;;;;;;;;;;5093629;28;20123;-62
2022/01/30 10:30:12;;;;;;;52.47;9.15;;;;;;;;;;5089862;28;20052;-62
2022/01/30 10:32:38;;;;;;;52.47;10.35;;;;;;;;;;5085546;28;20119;-62
2022/01/30 10:35:06;;;;;;;50.78;8.40;;;;;;;;;;5091155;28;20048;-62
2022/01/30 10:37:33;;;;;;;45.88;9.32;;;;;;;;;;5094851;28;20048;-62
2022/01/30 10:40:03;;;;;;;44.17;8.68;;;;;;;;;;5084353;28;20398;-63
2022/01/30 10:42:30;;;;;;;37.35;7.63;;;;;;;;;;5071443;28;20052;-63
2022/01/30 10:44:56;;;;;;;44.03;8.02;;;;;;;;;;5088629;28;20048;-63
2022/01/30 10:47:23;;;;;;;30.42;6.30;;;;;;;;;;5087427;28;20100;-62
2022/01/30 10:49:49;;;;;;;39.10;7.30;;;;;;;;;;5095247;28;20355;-62
2022/01/30 10:52:16;;;;;;;47.45;8.30;;;;;;;;;;5092561;28;20040;-62
2022/01/30 10:54:42;;;;;;;60.50;11.80;;;;;;;;;;5088554;28;20099;-62
2022/01/30 10:57:10;;;;;;;97.00;14.63;;;;;;;;;;5092444;28;20138;-62
2022/01/30 10:59:42;;;;;;;63.45;12.45;;;;;;;;;;5092197;28;20428;-62
2022/01/30 11:02:13;;;;;;;44.40;7.03;;;;;;;;;;5089551;28;20040;-62
2022/01/30 11:04:40;;;;;;;46.40;6.60;;;;;;;;;;5100617;28;20127;-62
2022/01/30 11:07:07;;;;;;;42.10;7.82;;;;;;;;;;5063901;28;20460;-64
2022/01/30 11:09:40;;;;;;;32.08;7.28;;;;;;;;;;5082449;28;20130;-64
2022/01/30 11:12:12;;;;;;;45.83;8.25;;;;;;;;;;5073899;28;20055;-64
2022/01/30 11:14:51;;;;;;;37.33;6.53;;;;;;;;;;5080964;28;20048;-64
2022/01/30 11:17:19;;;;;;;39.25;6.60;;;;;;;;;;5092780;28;20113;-63
2022/01/30 11:19:47;;;;;;;47.42;8.05;;;;;;;;;;5086108;28;20046;-63
2022/01/30 11:22:14;;;;;;;46.50;8.30;;;;;;;;;;5082302;28;20548;-63
2022/01/30 11:24:46;;;;;;;33.65;7.28;;;;;;;;;;5087514;28;20122;-63
2022/01/30 11:27:13;;;;;;;37.10;6.43;;;;;;;;;;5077374;28;20499;-63
2022/01/30 11:29:39;;;;;;;39.75;6.38;;;;;;;;;;5076546;28;20047;-63
2022/01/30 11:32:06;;;;;;;37.53;6.72;;;;;;;;;;5070372;28;20048;-63
2022/01/30 11:34:33;;;;;;;46.40;8.57;;;;;;;;;;5086814;28;20040;-63
2022/01/30 11:37:00;;;;;;;51.30;8.95;;;;;;;;;;5081253;28;20098;-63
2022/01/30 11:39:26;;;;;;;43.83;8.32;;;;;;;;;;5065228;28;20442;-63
2022/01/30 11:42:11;;;;;;;44.33;7.95;;;;;;;;;;5079828;28;20048;-63
2022/01/30 11:44:37;;;;;;;43.42;8.23;;;;;;;;;;5079909;28;20052;-64
2022/01/30 11:47:03;;;;;;;45.63;8.23;;;;;;;;;;5096834;28;20479;-64
2022/01/30 11:49:40;;;;;;;50.95;9.07;;;;;;;;;;5091409;28;20455;-64
2022/01/30 11:52:09;;;;;;;44.85;6.68;;;;;;;;;;5081645;28;20044;-63
2022/01/30 11:54:37;;;;;;;42.38;7.10;;;;;;;;;;5097460;28;20036;-63
2022/01/30 11:57:04;;;;;;;45.25;8.68;;;;;;;;;;5083120;28;20047;-64
2022/01/30 11:59:35;;;;;;;46.70;9.15;;;;;;;;;;5099651;28;20040;-64
2022/01/30 12:02:20;;;;;;;50.25;8.70;;;;;;;;;;5062612;28;20053;-64
2022/01/30 12:05:02;;;;;;;45.03;7.90;;;;;;;;;;5079883;28;20418;-64
2022/01/30 12:07:33;;;;;;;41.58;7.57;;;;;;;;;;5080639;28;20097;-64
2022/01/30 12:10:18;;;;;;;48.67;7.13;;;;;;;;;;5085243;28;20124;-62
2022/01/30 12:12:50;;;;;;;35.35;7.65;;;;;;;;;;5084938;28;20040;-62
2022/01/30 12:15:34;;;;;;;42.17;7.15;;;;;;;;;;5090591;28;20397;-61
2022/01/30 12:18:01;;;;;;;32.15;7.72;;;;;;;;;;5088722;28;20487;-62
2022/01/30 12:20:29;;;;;;;49.30;8.50;;;;;;;;;;5082088;28;20076;-62
2022/01/30 12:22:56;;;;;;;40.33;7.47;;;;;;;;;;5066931;28;20048;-61
2022/01/30 12:25:24;;;;;;;38.42;7.18;;;;;;;;;;5063374;28;20127;-62
2022/01/30 12:27:54;;;;;;;46.15;7.07;;;;;;;;;;5085906;28;20044;-62
2022/01/30 12:30:30;;;;;;;42.10;7.20;;;;;;;;;;5080835;28;20115;-62
2022/01/30 12:32:57;;;;;;;32.28;6.85;;;;;;;;;;5081306;28;20062;-62
2022/01/30 12:35:23;;;;;;;43.80;8.93;;;;;;;;;;5089033;28;20114;-62
2022/01/30 12:37:49;;;;;;;30.45;5.93;;;;;;;;;;5090819;28;20036;-62
2022/01/30 12:40:15;;;;;;;46.88;6.90;;;;;;;;;;5082273;28;20053;-62
2022/01/30 12:42:42;;;;;;;41.78;7.13;;;;;;;;;;5081205;28;20052;-62
2022/01/30 12:45:09;;;;;;;35.85;6.13;;;;;;;;;;5062412;28;20083;-62
2022/01/30 12:47:57;;;;;;;47.38;7.85;;;;;;;;;;5083614;28;20051;-62
2022/01/30 12:50:28;;;;;;;48.30;6.95;;;;;;;;;;5083943;28;20066;-62
2022/01/30 12:52:55;;;;;;;48.05;8.02;;;;;;;;;;5071323;28;20059;-62
2022/01/30 12:55:22;;;;;;;41.40;7.00;;;;;;;;;;5093340;28;20052;-62
2022/01/30 12:57:51;;;;;;;33.47;7.72;;;;;;;;;;5096803;28;20036;-62
2022/01/30 13:00:18;;;;;;;42.70;9.38;;;;;;;;;;5088028;28;20509;-62
2022/01/30 13:02:55;;;;;;;38.03;8.15;;;;;;;;;;5065888;28;20044;-62
2022/01/30 13:05:21;;;;;;;35.28;7.35;;;;;;;;;;5079896;28;20049;-62
2022/01/30 13:07:55;;;;;;;38.67;6.82;;;;;;;;;;5082690;28;20389;-61
2022/01/30 13:10:21;;;;;;;35.88;7.28;;;;;;;;;;5078643;28;20434;-62
2022/01/30 13:12:48;;;;;;;36.50;7.47;;;;;;;;;;5080414;28;20081;-61
2022/01/30 13:15:16;;;;;;;34.15;7.47;;;;;;;;;;5081430;28;20033;-61
2022/01/30 13:17:43;;;;;;;42.63;6.75;;;;;;;;;;5097602;28;20040;-62
2022/01/30 13:20:10;;;;;;;41.78;7.20;;;;;;;;;;5091391;28;20079;-62
2022/01/30 13:22:38;;;;;;;46.65;6.85;;;;;;;;;;5090038;28;20046;-61
2022/01/30 13:25:04;;;;;;;42.80;7.22;;;;;;;;;;5090548;28;20125;-61
2022/01/30 13:27:30;;;;;;;41.17;8.82;;;;;;;;;;5073317;28;20079;-61
2022/01/30 13:29:57;;;;;;;44.35;7.00;;;;;;;;;;5089508;28;20051;-62
2022/01/30 13:32:25;;;;;;;40.60;7.50;;;;;;;;;;5081653;28;20048;-62
2022/01/30 13:34:53;;;;;;;53.95;9.77;;;;;;;;;;5083616;28;20386;-62
2022/01/30 13:37:20;;;;;;;49.42;8.13;;;;;;;;;;5086462;28;20043;-62
2022/01/30 13:39:59;;;;;;;47.53;7.50;;;;;;;;;;5103050;28;20039;-62
2022/01/30 13:48:00;;;;;;;43.38;7.68;;;;;;;;;;5087925;28;20146;-62
2022/01/30 13:50:27;;;;;;;42.80;6.72;;;;;;;;;;5088804;28;20044;-62
2022/01/30 13:53:10;;;;;;;29.42;6.57;;;;;;;;;;5088881;28;20129;-62
2022/01/30 13:55:38;;;;;;;43.63;7.35;;;;;;;;;;5084915;28;20133;-62
2022/01/30 13:58:05;;;;;;;43.42;7.93;;;;;;;;;;5078468;28;20048;-62
2022/01/30 14:00:32;;;;;;;39.20;6.38;;;;;;;;;;5078081;28;20041;-62
2022/01/30 14:03:00;;;;;;;34.10;6.82;;;;;;;;;;5090512;28;20100;-62
2022/01/30 14:05:27;;;;;;;45.70;7.63;;;;;;;;;;5090873;28;20040;-62
2022/01/30 14:07:54;;;;;;;41.65;7.50;;;;;;;;;;5090002;28;20050;-62
2022/01/30 14:10:22;;;;;;;33.28;6.25;;;;;;;;;;5084744;28;20045;-62
2022/01/30 14:12:50;;;;;;;39.78;7.38;;;;;;;;;;5083437;28;20127;-62
2022/01/30 14:15:19;;;;;;;37.03;6.47;;;;;;;;;;5081957;28;20040;-62
2022/01/30 14:17:45;;;;;;;35.15;6.75;;;;;;;;;;5084794;28;20092;-63
2022/01/30 14:20:13;;;;;;;40.67;7.28;;;;;;;;;;5097572;28;20440;-63
2022/01/30 14:22:39;;;;;;;60.42;8.32;;;;;;;;;;5083965;28;20049;-62
2022/01/30 14:25:07;;;;;;;33.05;5.82;;;;;;;;;;5089545;28;20047;-62
2022/01/30 14:27:35;;;;;;;46.67;8.75;;;;;;;;;;5091934;28;20720;-62
2022/01/30 14:30:04;;;;;;;32.88;5.95;;;;;;;;;;5100765;28;20063;-62
2022/01/30 14:32:33;;;;;;;33.65;6.05;;;;;;;;;;5093512;28;20042;-62
2022/01/30 14:35:00;;;;;;;43.22;7.50;;;;;;;;;;5088293;28;20060;-62
2022/01/30 14:37:27;;;;;;;37.05;6.65;;;;;;;;;;5086098;28;20072;-62
2022/01/30 14:39:54;;;;;;;49.78;7.80;;;;;;;;;;5103186;27;20044;-62
2022/01/30 14:42:21;;;;;;;46.90;7.93;;;;;;;;;;5086681;28;20048;-62
2022/01/30 14:44:47;;;;;;;44.42;7.22;;;;;;;;;;5092829;28;20429;-62
2022/01/30 14:47:13;;;;;;;39.85;6.95;;;;;;;;;;5057450;28;20378;-62
2022/01/30 14:49:41;;;;;;;42.45;6.35;;;;;;;;;;5073349;28;20055;-61
2022/01/30 14:52:07;;;;;;;43.08;6.28;;;;;;;;;;5096302;28;20058;-62
2022/01/30 14:54:34;;;;;;;36.78;7.85;;;;;;;;;;5090207;28;20486;-62
2022/01/30 14:57:01;;;;;;;42.80;7.47;;;;;;;;;;5089669;28;20055;-62
2022/01/30 14:59:28;;;;;;;36.97;7.85;;;;;;;;;;5089223;28;20040;-62
2022/01/30 15:01:55;;;;;;;49.13;9.82;;;;;;;;;;5090685;28;20138;-61
2022/01/30 15:04:21;;;;;;;40.00;7.00;;;;;;;;;;5088145;28;20062;-61
2022/01/30 15:06:47;;;;;;;40.72;7.90;;;;;;;;;;5092947;28;20032;-61
2022/01/30 15:09:13;;;;;;;46.45;7.25;;;;;;;;;;5095249;28;20089;-61
2022/01/30 15:11:39;;;;;;;40.33;6.78;;;;;;;;;;5100226;28;20507;-61
2022/01/30 15:14:06;;;;;;;41.90;6.57;;;;;;;;;;5092673;28;20048;-61